Time;durP1;ratioP1;P1;durP2;ratioP2;P2;SDS_P1;SDS_P2;PMS_P1;PMS_P2;Temp;Humidity;BMP_temperature;BMP_pressure;BME280_temperature;BME280_humidity;BME280_pressure;Samples;Min_cycle;Max_cycle;Signal;HPM_P1;HPM_P2
2023/04/22 00:00:28;;;;;;;7.53;6.82;;;;;;;9.58;100.00;100711.78;5278261;28;20015;-70
2023/04/22 00:03:00;;;;;;;8.05;7.25;;;;;;;9.44;100.00;100715.53;5277776;28;20390;-70
2023/04/22 00:05:31;;;;;;;9.70;8.50;;;;;;;9.44;100.00;100712.94;5253480;28;20103;-69
2023/04/22 00:08:03;;;;;;;9.63;8.63;;;;;;;9.37;100.00;100717.00;5278827;28;20035;-69
2023/04/22 00:10:34;;;;;;;10.00;9.00;;;;;;;9.35;100.00;100713.66;5278492;28;20452;-70
2023/04/22 00:13:05;;;;;;;10.23;9.13;;;;;;;9.42;100.00;100716.63;5278991;28;20021;-69
2023/04/22 00:15:37;;;;;;;10.35;9.20;;;;;;;9.32;100.00;100706.09;5279521;28;20447;-70
2023/04/22 00:18:12;;;;;;;10.57;9.48;;;;;;;9.38;100.00;100713.41;5277645;28;20102;-70
2023/04/22 00:20:44;;;;;;;10.27;9.27;;;;;;;9.36;100.00;100707.50;5279153;28;20302;-70
2023/04/22 00:23:15;;;;;;;10.55;9.52;;;;;;;9.35;100.00;100711.03;5278900;28;20419;-70
2023/04/22 00:25:46;;;;;;;11.38;10.18;;;;;;;9.35;100.00;100713.66;5276515;28;20052;-70
2023/04/22 00:28:18;;;;;;;11.35;10.25;;;;;;;9.32;100.00;100706.09;5281315;28;20028;-70
2023/04/22 00:30:49;;;;;;;10.57;9.57;;;;;;;9.31;100.00;100709.63;5276878;28;20389;-70
2023/04/22 00:33:20;;;;;;;11.48;10.27;;;;;;;9.31;100.00;100703.59;5283968;28;20465;-70
2023/04/22 00:35:53;;;;;;;11.73;10.55;;;;;;;9.37;100.00;100708.31;5276311;28;20393;-70
2023/04/22 00:38:24;;;;;;;11.98;10.82;;;;;;;9.36;100.00;100704.88;5261496;28;20043;-69
2023/04/22 00:40:56;;;;;;;10.75;9.65;;;;;;;9.33;100.00;100704.31;5277905;28;20028;-70
2023/04/22 00:43:27;;;;;;;10.27;9.27;;;;;;;9.32;100.00;100705.25;5277628;28;20020;-70
2023/04/22 00:45:59;;;;;;;10.43;9.38;;;;;;;9.25;100.00;100704.94;5281635;28;20035;-70
2023/04/22 00:48:30;;;;;;;10.88;9.43;;;;;;;9.23;100.00;100710.25;5279938;28;20071;-70
2023/04/22 00:51:02;;;;;;;11.48;10.40;;;;;;;9.24;100.00;100705.88;5266675;28;20047;-69
2023/04/22 00:53:33;;;;;;;10.52;9.50;;;;;;;9.16;100.00;100710.88;5280018;28;20112;-70
2023/04/22 00:56:05;;;;;;;11.95;10.77;;;;;;;9.15;100.00;100715.28;5283547;28;20111;-69
2023/04/22 00:58:36;;;;;;;10.70;9.70;;;;;;;9.13;100.00;100721.59;5282109;28;20047;-70
2023/04/22 01:01:08;;;;;;;11.23;10.18;;;;;;;9.14;100.00;100703.19;5283882;28;20552;-70
2023/04/22 01:03:39;;;;;;;11.32;10.32;;;;;;;9.16;100.00;100706.50;5280265;28;20063;-69
2023/04/22 01:06:11;;;;;;;11.35;10.35;;;;;;;9.16;100.00;100716.13;5283037;28;20022;-70
2023/04/22 01:08:43;;;;;;;11.23;10.10;;;;;;;9.07;100.00;100706.41;5276379;28;20036;-70
2023/04/22 01:11:14;;;;;;;12.55;11.43;;;;;;;9.13;100.00;100705.91;5280112;28;20074;-70
2023/04/22 01:13:45;;;;;;;11.68;10.60;;;;;;;9.10;100.00;100708.78;5277921;28;20113;-70
2023/04/22 01:16:17;;;;;;;10.70;9.60;;;;;;;9.09;100.00;100713.19;5265736;28;20518;-70
2023/04/22 01:18:49;;;;;;;10.88;9.82;;;;;;;9.11;100.00;100716.50;5281166;28;20033;-70
2023/04/22 01:21:21;;;;;;;11.75;10.70;;;;;;;9.04;100.00;100690.97;5279906;28;20027;-70
2023/04/22 01:23:53;;;;;;;12.20;11.10;;;;;;;9.18;100.00;100698.53;5280077;28;20485;-70
2023/04/22 01:26:24;;;;;;;10.50;9.60;;;;;;;9.17;100.00;100705.56;5285138;28;20028;-70
2023/04/22 01:28:56;;;;;;;11.35;10.25;;;;;;;9.19;100.00;100708.03;5265330;28;20040;-69
2023/04/22 01:31:28;;;;;;;11.63;10.43;;;;;;;9.25;100.00;100699.69;5278444;28;20434;-70
2023/04/22 01:34:00;;;;;;;10.88;9.88;;;;;;;9.22;100.00;100694.72;5276810;28;20449;-70
2023/04/22 01:36:32;;;;;;;11.65;10.45;;;;;;;9.18;100.00;100690.69;5282101;28;20081;-70
2023/04/22 01:39:04;;;;;;;11.53;10.00;;;;;;;9.21;100.00;100691.28;5280705;28;20024;-69
2023/04/22 01:41:35;;;;;;;10.07;9.18;;;;;;;9.30;100.00;100700.16;5279762;28;20028;-70
2023/04/22 01:44:06;;;;;;;11.10;10.00;;;;;;;9.33;100.00;100686.81;5277421;28;20028;-70
2023/04/22 01:46:38;;;;;;;9.98;9.07;;;;;;;9.41;100.00;100697.47;5279750;28;20017;-70
2023/04/22 01:49:09;;;;;;;10.95;9.40;;;;;;;9.34;100.00;100692.88;5280884;28;20028;-70
2023/04/22 01:51:41;;;;;;;10.80;9.80;;;;;;;9.33;100.00;100697.28;5280490;28;20107;-70
2023/04/22 01:54:12;;;;;;;9.13;8.23;;;;;;;9.31;100.00;100691.34;5280018;28;20355;-70
2023/04/22 01:56:49;;;;;;;9.40;8.48;;;;;;;9.44;100.00;100678.09;5282894;28;20505;-70
2023/04/22 01:59:21;;;;;;;10.00;9.00;;;;;;;9.42;100.00;100696.53;5279414;28;20423;-70
2023/04/22 02:01:52;;;;;;;10.48;9.38;;;;;;;9.41;100.00;100694.88;5281383;28;20067;-70
2023/04/22 02:04:23;;;;;;;10.48;9.48;;;;;;;9.40;100.00;100695.00;5281439;28;20023;-70
2023/04/22 02:06:54;;;;;;;9.93;9.02;;;;;;;9.35;100.00;100695.34;5281199;28;20067;-70
2023/04/22 02:09:26;;;;;;;10.07;9.07;;;;;;;9.35;100.00;100699.75;5280389;28;20028;-70
2023/04/22 02:11:57;;;;;;;10.27;9.38;;;;;;;9.38;100.00;100692.50;5278880;28;20064;-70
2023/04/22 02:14:28;;;;;;;11.48;10.35;;;;;;;9.38;100.00;100687.28;5278717;28;20032;-71
2023/04/22 02:17:01;;;;;;;9.93;9.02;;;;;;;9.34;100.00;100692.88;5279406;28;20039;-70
2023/04/22 02:19:32;;;;;;;11.10;10.00;;;;;;;9.35;100.00;100691.91;5279380;28;20028;-70
2023/04/22 02:22:03;;;;;;;10.25;9.32;;;;;;;9.34;100.00;100696.31;5279875;28;20270;-70
2023/04/22 02:24:34;;;;;;;10.38;9.43;;;;;;;9.32;100.00;100689.56;5279203;28;20031;-70
2023/04/22 02:27:07;;;;;;;11.55;9.85;;;;;;;9.26;100.00;100689.09;5283317;28;20090;-70
2023/04/22 02:29:38;;;;;;;10.43;9.48;;;;;;;9.24;100.00;100683.19;5280129;28;20059;-70
2023/04/22 02:32:10;;;;;;;9.90;9.00;;;;;;;9.41;100.00;100670.50;5281075;28;20040;-70
2023/04/22 02:34:42;;;;;;;10.35;9.30;;;;;;;9.27;100.00;100669.84;5281095;28;20036;-70
2023/04/22 02:37:13;;;;;;;11.13;9.73;;;;;;;9.31;100.00;100670.44;5278554;28;20082;-70
2023/04/22 02:39:44;;;;;;;10.18;9.18;;;;;;;9.36;100.00;100668.28;5281044;28;20513;-70
2023/04/22 02:42:15;;;;;;;10.82;9.73;;;;;;;9.45;100.00;100666.69;5277913;28;20401;-70
2023/04/22 02:44:47;;;;;;;10.90;8.85;;;;;;;9.40;100.00;100661.00;5279483;28;20024;-70
2023/04/22 02:47:18;;;;;;;10.43;9.18;;;;;;;9.18;100.00;100667.19;5275499;28;20485;-70
2023/04/22 02:49:49;;;;;;;11.18;10.07;;;;;;;9.08;100.00;100671.47;5280876;28;20024;-69
2023/04/22 02:52:21;;;;;;;10.45;9.40;;;;;;;9.04;100.00;100664.84;5277563;28;20039;-70
2023/04/22 02:54:52;;;;;;;11.05;9.88;;;;;;;9.04;100.00;100662.22;5279966;28;20072;-69
2023/04/22 02:57:23;;;;;;;10.55;9.40;;;;;;;9.10;100.00;100653.91;5276183;28;20043;-70
2023/04/22 02:59:55;;;;;;;10.60;9.60;;;;;;;9.20;100.00;100654.78;5285390;28;20404;-70
2023/04/22 03:02:27;;;;;;;10.93;9.88;;;;;;;9.26;100.00;100667.38;5299741;28;20019;-70
2023/04/22 03:04:59;;;;;;;9.98;8.98;;;;;;;9.22;100.00;100666.78;5300060;28;20028;-70
2023/04/22 03:07:31;;;;;;;10.63;9.63;;;;;;;9.29;100.00;100671.53;5301844;28;20114;-70
2023/04/22 03:10:02;;;;;;;10.57;9.55;;;;;;;9.24;100.00;100664.03;5299886;28;20027;-70
2023/04/22 03:12:34;;;;;;;10.45;9.35;;;;;;;9.16;100.00;100658.63;5302180;28;20023;-70
2023/04/22 03:15:06;;;;;;;10.55;9.55;;;;;;;9.18;100.00;100652.31;5301892;28;20511;-70
2023/04/22 03:17:37;;;;;;;10.60;9.70;;;;;;;9.17;100.00;100647.22;5298969;28;20024;-70
2023/04/22 03:20:09;;;;;;;10.88;9.70;;;;;;;9.18;100.00;100646.25;5299319;28;21275;-70
2023/04/22 03:22:40;;;;;;;11.20;10.02;;;;;;;9.17;100.00;100639.38;5298491;28;20028;-70
2023/04/22 03:25:12;;;;;;;10.98;9.57;;;;;;;9.22;100.00;100642.44;5296049;28;20023;-70
2023/04/22 03:27:43;;;;;;;10.80;9.80;;;;;;;9.21;100.00;100632.94;5303294;28;20066;-70
2023/04/22 03:30:14;;;;;;;11.27;10.25;;;;;;;9.18;100.00;100636.63;5304560;28;20089;-70
2023/04/22 03:32:46;;;;;;;11.05;9.93;;;;;;;9.14;100.00;100632.63;5283406;28;20032;-70
2023/04/22 03:35:17;;;;;;;11.25;10.10;;;;;;;9.17;100.00;100628.94;5282165;28;20156;-70
2023/04/22 03:37:48;;;;;;;11.55;10.45;;;;;;;9.17;100.00;100629.75;5279625;28;20573;-70
2023/04/22 03:40:20;;;;;;;11.95;10.75;;;;;;;9.20;100.00;100619.03;5301968;28;20023;-70
2023/04/22 03:42:51;;;;;;;10.57;9.68;;;;;;;9.14;100.00;100629.19;5301788;28;20046;-70
2023/04/22 03:45:22;;;;;;;10.85;9.93;;;;;;;9.15;100.00;100620.38;5300033;28;20019;-70
2023/04/22 03:47:53;;;;;;;11.15;10.07;;;;;;;9.16;100.00;100612.41;5301177;28;20062;-70
2023/04/22 03:50:25;;;;;;;10.43;9.52;;;;;;;9.07;100.00;100605.31;5297849;28;20115;-70
2023/04/22 03:52:56;;;;;;;12.65;10.27;;;;;;;9.11;100.00;100598.88;5302358;28;20039;-70
2023/04/22 03:55:27;;;;;;;12.35;10.43;;;;;;;9.11;100.00;100611.97;5294897;28;20102;-70
2023/04/22 03:57:58;;;;;;;11.00;10.00;;;;;;;9.06;100.00;100610.69;5298960;28;20048;-70
2023/04/22 04:00:30;;;;;;;12.30;11.00;;;;;;;9.14;100.00;100610.88;5298123;28;20067;-70
2023/04/22 04:03:01;;;;;;;12.98;11.77;;;;;;;9.13;100.00;100612.66;5300636;28;20115;-70
2023/04/22 04:05:32;;;;;;;11.32;10.23;;;;;;;9.10;100.00;100602.47;5301024;28;20119;-70
2023/04/22 04:08:04;;;;;;;11.70;10.60;;;;;;;9.10;100.00;100597.25;5302272;28;20035;-70
2023/04/22 04:10:36;;;;;;;11.70;10.57;;;;;;;9.17;100.00;100606.22;5298887;28;20088;-70
2023/04/22 04:13:07;;;;;;;12.93;10.32;;;;;;;9.13;100.00;100597.00;5299581;28;20033;-70
2023/04/22 04:15:38;;;;;;;11.65;10.43;;;;;;;9.12;100.00;100597.09;5298719;28;20497;-70
2023/04/22 04:18:10;;;;;;;11.88;10.68;;;;;;;9.13;100.00;100601.34;5301454;28;20025;-70
2023/04/22 04:20:42;;;;;;;11.30;10.18;;;;;;;9.10;100.00;100602.47;5302846;28;20023;-70
2023/04/22 04:23:13;;;;;;;11.32;10.23;;;;;;;9.16;100.00;100601.94;5304027;28;20283;-70
2023/04/22 04:25:44;;;;;;;10.95;9.95;;;;;;;9.09;100.00;100600.81;5303577;28;20064;-70
2023/04/22 04:28:16;;;;;;;10.95;9.95;;;;;;;9.08;100.00;100598.31;5304347;28;20019;-70
2023/04/22 04:30:47;;;;;;;11.07;10.05;;;;;;;9.09;100.00;100594.72;5298826;28;20054;-70
2023/04/22 04:33:19;;;;;;;11.73;10.73;;;;;;;9.11;100.00;100593.66;5306809;28;20484;-70
2023/04/22 04:35:51;;;;;;;11.70;10.55;;;;;;;9.01;100.00;100585.75;5280878;28;20405;-70
2023/04/22 04:38:23;;;;;;;10.80;9.73;;;;;;;9.07;100.00;100592.25;5303225;28;20027;-70
2023/04/22 04:40:55;;;;;;;11.18;10.15;;;;;;;9.15;100.00;100589.00;5305587;28;20026;-70
2023/04/22 04:43:28;;;;;;;11.70;10.60;;;;;;;9.15;100.00;100589.00;5306342;28;20019;-70
2023/04/22 04:45:59;;;;;;;12.30;10.95;;;;;;;9.19;100.00;100593.03;5302794;28;20023;-70
2023/04/22 04:48:34;;;;;;;12.38;11.18;;;;;;;9.20;100.00;100599.91;5281191;28;20027;-72
2023/04/22 04:51:06;;;;;;;11.93;10.77;;;;;;;9.10;100.00;100599.84;5304023;28;20035;-71
2023/04/22 04:53:39;;;;;;;12.65;11.45;;;;;;;9.11;100.00;100608.50;5301174;28;20397;-72
2023/04/22 04:56:10;;;;;;;13.18;11.75;;;;;;;9.13;100.00;100602.22;5303451;28;20027;-72
2023/04/22 04:58:42;;;;;;;12.98;11.70;;;;;;;9.06;100.00;100600.25;5283732;28;20239;-72
2023/04/22 05:01:13;;;;;;;12.90;11.20;;;;;;;9.09;100.00;100613.88;5279114;28;20082;-72
2023/04/22 05:03:44;;;;;;;12.50;11.20;;;;;;;9.15;100.00;100605.50;5277528;28;20032;-70
2023/04/22 05:06:16;;;;;;;13.52;11.68;;;;;;;9.18;100.00;100609.66;5280088;28;20028;-71
2023/04/22 05:08:47;;;;;;;13.60;11.73;;;;;;;9.20;100.00;100608.56;5264194;28;20810;-70
2023/04/22 05:11:18;;;;;;;13.48;12.15;;;;;;;9.19;100.00;100598.25;5265467;28;20073;-70
2023/04/22 05:13:50;;;;;;;13.90;12.50;;;;;;;9.18;100.00;100588.75;5281521;28;20040;-70
2023/04/22 05:16:21;;;;;;;13.18;11.52;;;;;;;9.18;100.00;100584.34;5284082;28;20103;-70
2023/04/22 05:18:52;;;;;;;11.98;10.88;;;;;;;9.23;100.00;100576.13;5286319;28;20531;-70
2023/04/22 05:21:24;;;;;;;13.50;12.27;;;;;;;9.17;100.00;100568.81;5278867;28;20029;-70
2023/04/22 05:23:55;;;;;;;12.75;11.55;;;;;;;9.32;100.00;100584.97;5282792;28;20039;-70
2023/04/22 05:26:26;;;;;;;13.77;12.40;;;;;;;9.35;100.00;100597.81;5278846;28;20024;-70
2023/04/22 05:28:58;;;;;;;14.85;13.35;;;;;;;9.28;100.00;100594.91;5263682;28;20103;-70
2023/04/22 05:31:29;;;;;;;13.10;11.88;;;;;;;9.36;100.00;100602.09;5278496;28;20035;-70
2023/04/22 05:34:00;;;;;;;13.55;12.15;;;;;;;9.39;100.00;100596.59;5281763;28;20032;-70
2023/04/22 05:36:32;;;;;;;14.25;12.95;;;;;;;9.46;100.00;100592.50;5281567;28;20441;-70
2023/04/22 05:39:03;;;;;;;15.23;13.63;;;;;;;9.51;100.00;100585.13;5276921;28;20442;-70
2023/04/22 05:41:34;;;;;;;16.02;14.15;;;;;;;9.54;100.00;100579.59;5283472;28;20455;-70
2023/04/22 05:44:06;;;;;;;15.52;13.85;;;;;;;9.56;100.00;100580.31;5279881;28;20482;-70
2023/04/22 05:46:37;;;;;;;15.27;13.77;;;;;;;9.57;100.00;100589.00;5283775;28;20012;-70
2023/04/22 05:49:09;;;;;;;15.75;14.25;;;;;;;9.61;100.00;100585.97;5261165;28;20432;-70
2023/04/22 05:51:41;;;;;;;15.30;13.90;;;;;;;9.62;100.00;100586.78;5279271;28;20041;-70
2023/04/22 05:54:12;;;;;;;14.27;12.88;;;;;;;9.71;100.00;100586.84;5283178;28;20636;-70
2023/04/22 05:56:43;;;;;;;14.50;13.20;;;;;;;9.81;100.00;100588.69;5279207;28;20044;-70
2023/04/22 05:59:15;;;;;;;14.18;12.88;;;;;;;9.81;100.00;100572.97;5277209;28;20055;-70
2023/04/22 06:01:46;;;;;;;15.70;14.20;;;;;;;9.91;100.00;100577.28;5272475;28;20032;-70
2023/04/22 06:04:18;;;;;;;14.35;12.98;;;;;;;10.04;100.00;100579.69;5271504;28;20107;-70
2023/04/22 06:06:52;;;;;;;14.88;13.55;;;;;;;10.08;100.00;100582.88;5275670;28;20032;-70
2023/04/22 06:09:23;;;;;;;15.48;14.02;;;;;;;10.15;100.00;100584.81;5275620;28;20504;-70
2023/04/22 06:11:55;;;;;;;15.77;14.30;;;;;;;10.20;100.00;100577.38;5258059;28;20032;-70
2023/04/22 06:14:26;;;;;;;16.35;14.85;;;;;;;10.35;100.00;100593.59;5257306;28;20035;-70
2023/04/22 06:16:58;;;;;;;15.43;13.95;;;;;;;10.37;100.00;100590.81;5278461;28;20370;-70
2023/04/22 06:19:29;;;;;;;16.67;15.27;;;;;;;10.42;100.00;100581.59;5277795;28;20568;-70
2023/04/22 06:22:00;;;;;;;17.38;15.73;;;;;;;10.47;100.00;100574.16;5275404;28;20405;-70
2023/04/22 06:24:31;;;;;;;16.55;15.05;;;;;;;10.58;100.00;100569.78;5269637;28;20320;-70
2023/04/22 06:27:03;;;;;;;17.50;15.90;;;;;;;10.73;100.00;100570.19;5274772;28;20422;-70
2023/04/22 06:29:34;;;;;;;16.08;14.68;;;;;;;10.88;100.00;100564.38;5257444;28;20027;-70
2023/04/22 06:32:05;;;;;;;15.93;14.52;;;;;;;10.99;100.00;100570.47;5276657;28;20123;-70
2023/04/22 06:34:37;;;;;;;14.93;13.32;;;;;;;11.12;100.00;100573.59;5260652;28;20397;-70
2023/04/22 06:37:09;;;;;;;14.57;13.10;;;;;;;11.24;100.00;100563.78;5279084;28;20047;-70
2023/04/22 06:39:40;;;;;;;14.40;12.98;;;;;;;11.32;100.00;100569.97;5280613;28;20028;-70
2023/04/22 06:42:11;;;;;;;14.77;13.32;;;;;;;11.42;100.00;100562.91;5270741;28;20508;-70
2023/04/22 06:44:42;;;;;;;14.18;12.73;;;;;;;11.62;100.00;100552.34;5275703;28;20020;-70
2023/04/22 06:47:14;;;;;;;14.50;13.10;;;;;;;11.68;100.00;100562.28;5256265;28;20548;-70
2023/04/22 06:49:46;;;;;;;14.27;12.93;;;;;;;11.70;100.00;100552.44;5273548;28;20412;-70
2023/04/22 06:52:17;;;;;;;13.93;12.48;;;;;;;11.79;100.00;100553.41;5274847;28;20086;-70
2023/04/22 06:54:48;;;;;;;14.68;12.57;;;;;;;11.84;100.00;100553.81;5257212;28;20465;-70
2023/04/22 06:57:19;;;;;;;13.57;12.27;;;;;;;11.95;100.00;100568.56;5275994;28;20040;-70
2023/04/22 06:59:52;;;;;;;13.93;12.60;;;;;;;12.06;100.00;100563.94;5274612;28;20047;-69
2023/04/22 07:02:23;;;;;;;13.23;12.02;;;;;;;12.21;100.00;100558.19;5274575;28;20047;-70
2023/04/22 07:04:54;;;;;;;13.48;12.15;;;;;;;12.40;100.00;100555.44;5272542;28;20032;-70
2023/04/22 07:07:26;;;;;;;13.13;11.80;;;;;;;12.60;100.00;100554.31;5271943;28;20463;-70
2023/04/22 07:09:57;;;;;;;11.65;10.43;;;;;;;12.80;100.00;100546.25;5276465;28;20020;-69
2023/04/22 07:12:28;;;;;;;11.55;10.50;;;;;;;12.93;100.00;100551.13;5276676;28;20092;-70
2023/04/22 07:15:00;;;;;;;12.02;10.80;;;;;;;12.99;100.00;100551.34;5255293;28;20032;-70
2023/04/22 07:17:31;;;;;;;11.02;9.93;;;;;;;13.01;100.00;100544.13;5275294;28;20522;-70
2023/04/22 07:20:02;;;;;;;10.05;9.05;;;;;;;12.97;100.00;100544.59;5276727;28;20050;-71
2023/04/22 07:22:34;;;;;;;10.45;9.45;;;;;;;13.04;100.00;100550.91;5275758;28;20028;-71
2023/04/22 07:25:06;;;;;;;10.55;9.50;;;;;;;13.07;100.00;100551.41;5273965;28;20162;-71
2023/04/22 07:27:37;;;;;;;11.23;9.73;;;;;;;13.30;100.00;100558.84;5277019;28;20032;-72
2023/04/22 07:30:12;;;;;;;10.70;9.20;;;;;;;13.34;100.00;100561.00;5273328;28;20109;-71
2023/04/22 07:32:43;;;;;;;10.35;8.95;;;;;;;13.26;100.00;100553.06;5266761;28;20043;-71
2023/04/22 07:35:14;;;;;;;10.30;9.27;;;;;;;13.46;100.00;100551.03;5274719;28;20401;-71
2023/04/22 07:37:46;;;;;;;11.13;10.02;;;;;;;13.68;100.00;100549.69;5256855;28;20105;-71
2023/04/22 07:40:17;;;;;;;11.35;9.00;;;;;;;13.82;100.00;100551.69;5273860;28;20032;-71
2023/04/22 07:42:48;;;;;;;10.23;9.23;;;;;;;13.79;100.00;100552.03;5274001;28;20032;-71
2023/04/22 07:45:19;;;;;;;10.50;9.48;;;;;;;13.87;100.00;100567.03;5255914;28;20116;-71
2023/04/22 07:47:51;;;;;;;10.13;8.88;;;;;;;13.81;100.00;100563.22;5275415;28;20032;-71
2023/04/22 07:50:22;;;;;;;10.82;9.32;;;;;;;13.78;100.00;100555.63;5270250;28;20020;-71
2023/04/22 07:52:53;;;;;;;10.90;9.18;;;;;;;13.93;100.00;100533.97;5272143;28;20490;-71
2023/04/22 07:55:25;;;;;;;12.30;9.25;;;;;;;14.01;100.00;100526.09;5262560;28;20425;-70
2023/04/22 07:57:58;;;;;;;11.13;9.13;;;;;;;14.19;100.00;100526.78;5279605;28;20044;-71
2023/04/22 08:00:30;;;;;;;9.65;8.65;;;;;;;14.27;100.00;100529.44;5283947;28;20032;-71
2023/04/22 08:03:02;;;;;;;10.82;8.60;;;;;;;14.31;100.00;100528.13;5282785;28;20050;-71
2023/04/22 08:05:33;;;;;;;9.27;7.90;;;;;;;14.57;100.00;100521.94;5285478;28;20028;-71
2023/04/22 08:08:05;;;;;;;10.10;8.82;;;;;;;14.51;100.00;100514.72;5277967;28;20082;-71
2023/04/22 08:10:37;;;;;;;10.25;9.25;;;;;;;14.59;100.00;100510.25;5262967;28;20043;-70
2023/04/22 08:13:08;;;;;;;11.40;9.05;;;;;;;14.60;100.00;100513.72;5280933;28;20980;-70
2023/04/22 08:15:39;;;;;;;10.85;9.43;;;;;;;14.79;100.00;100507.28;5276120;28;20055;-70
2023/04/22 08:18:11;;;;;;;8.32;7.53;;;;;;;14.86;100.00;100518.81;5277844;28;20043;-70
2023/04/22 08:20:42;;;;;;;10.07;7.78;;;;;;;15.00;100.00;100498.84;5275002;28;20176;-70
2023/04/22 08:23:13;;;;;;;8.07;7.28;;;;;;;15.08;100.00;100504.13;5276763;28;20028;-70
2023/04/22 08:25:45;;;;;;;8.95;7.32;;;;;;;15.16;100.00;100506.75;5278969;28;20073;-70
2023/04/22 08:28:16;;;;;;;8.43;7.63;;;;;;;15.26;100.00;100504.72;5280869;28;20028;-70
2023/04/22 08:30:48;;;;;;;8.15;7.13;;;;;;;15.35;100.00;100502.09;5262262;28;20408;-70
2023/04/22 08:33:19;;;;;;;7.72;7.00;;;;;;;15.54;100.00;100506.97;5276924;28;20048;-70
2023/04/22 08:35:51;;;;;;;8.25;7.25;;;;;;;15.62;100.00;100509.56;5279994;28;20180;-71
2023/04/22 08:38:22;;;;;;;7.70;6.90;;;;;;;15.84;100.00;100494.81;5280651;28;20103;-70
2023/04/22 08:40:55;;;;;;;9.32;7.35;;;;;;;16.01;100.00;100484.97;5258909;28;20143;-70
2023/04/22 08:43:27;;;;;;;7.75;6.90;;;;;;;16.17;100.00;100478.75;5279177;28;20028;-70
2023/04/22 08:45:58;;;;;;;7.03;6.32;;;;;;;16.19;100.00;100472.31;5281211;28;20577;-70
2023/04/22 08:48:31;;;;;;;9.43;6.95;;;;;;;16.24;100.00;100469.94;5278340;28;20066;-70
2023/04/22 08:51:04;;;;;;;6.80;6.20;;;;;;;16.37;100.00;100458.81;5276215;28;20030;-71
2023/04/22 08:53:36;;;;;;;7.60;6.22;;;;;;;16.57;100.00;100459.13;5280669;28;20041;-73
2023/04/22 08:56:08;;;;;;;7.63;6.25;;;;;;;16.77;100.00;100470.06;5280019;28;20031;-73
2023/04/22 08:58:42;;;;;;;7.00;6.30;;;;;;;16.86;100.00;100469.00;5279690;28;20079;-73
2023/04/22 09:01:14;;;;;;;6.25;5.50;;;;;;;16.86;100.00;100458.41;5276489;28;20071;-73
2023/04/22 09:03:47;;;;;;;6.70;5.63;;;;;;;16.83;100.00;100458.75;5279166;28;20494;-73
2023/04/22 09:06:20;;;;;;;7.63;5.72;;;;;;;16.88;100.00;100455.56;5276861;28;20338;-73
2023/04/22 09:08:51;;;;;;;5.70;4.95;;;;;;;17.11;100.00;100466.91;5277032;28;20063;-74
2023/04/22 09:11:26;;;;;;;5.82;5.25;;;;;;;17.23;100.00;100465.44;5261952;28;20122;-73
2023/04/22 09:13:57;;;;;;;6.78;4.95;;;;;;;17.34;100.00;100464.16;5260779;28;20472;-73
2023/04/22 09:16:33;;;;;;;7.18;4.75;;;;;;;17.45;100.00;100466.34;5270442;28;20036;-73
2023/04/22 09:19:04;;;;;;;7.85;5.03;;;;;;;17.53;100.00;100468.06;5277838;28;20150;-73
2023/04/22 09:21:36;;;;;;;5.70;5.15;;;;;;;17.53;100.00;100462.78;5280654;28;20424;-73
2023/04/22 09:24:10;;;;;;;6.93;5.80;;;;;;;17.63;100.00;100460.66;5281282;28;20028;-72
2023/04/22 09:26:41;;;;;;;7.00;5.38;;;;;;;17.71;100.00;100460.56;5281168;28;20035;-72
2023/04/22 09:29:14;;;;;;;6.38;5.07;;;;;;;18.01;100.00;100449.91;5278794;28;20024;-72
2023/04/22 09:31:49;;;;;;;5.93;5.20;;;;;;;18.26;98.26;100452.16;5276800;28;20038;-72
2023/04/22 09:34:21;;;;;;;5.88;5.00;;;;;;;18.22;96.07;100449.94;5262040;28;20024;-72
2023/04/22 09:36:52;;;;;;;8.57;5.97;;;;;;;18.40;100.00;100438.84;5277750;28;20485;-72
2023/04/22 09:39:28;;;;;;;7.10;5.40;;;;;;;18.60;93.92;100444.34;5279715;28;20073;-72
2023/04/22 09:41:59;;;;;;;6.35;5.13;;;;;;;18.60;96.04;100441.69;5258322;28;20472;-72
2023/04/22 09:44:34;;;;;;;5.75;5.15;;;;;;;18.71;99.63;100446.50;5278068;28;20028;-72
2023/04/22 09:47:07;;;;;;;6.43;4.93;;;;;;;18.72;97.14;100449.97;5258581;28;20024;-72
2023/04/22 09:49:39;;;;;;;6.53;4.70;;;;;;;18.75;94.57;100460.16;5277297;28;20398;-71
2023/04/22 09:52:10;;;;;;;5.30;4.80;;;;;;;18.76;92.96;100461.00;5274712;28;20036;-71
2023/04/22 09:54:50;;;;;;;6.22;5.25;;;;;;;18.96;93.87;100460.13;5279049;28;20048;-72
2023/04/22 09:57:21;;;;;;;5.70;5.20;;;;;;;18.95;91.56;100461.16;5279581;28;20044;-72
2023/04/22 09:59:57;;;;;;;6.28;5.65;;;;;;;19.21;94.68;100454.38;5274830;28;20076;-71
2023/04/22 10:02:29;;;;;;;7.45;5.30;;;;;;;19.38;91.75;100454.84;5275705;28;20036;-72
2023/04/22 10:05:00;;;;;;;7.18;5.50;;;;;;;19.40;90.74;100458.13;5273455;28;20106;-71
2023/04/22 10:07:32;;;;;;;5.82;5.22;;;;;;;19.49;86.19;100458.78;5276086;28;20417;-72
2023/04/22 10:10:03;;;;;;;5.77;5.17;;;;;;;19.59;87.05;100451.28;5279787;28;20371;-71
2023/04/22 10:12:36;;;;;;;7.38;6.10;;;;;;;19.80;84.51;100460.97;5276611;28;20579;-72
2023/04/22 10:15:07;;;;;;;5.97;5.30;;;;;;;19.84;83.48;100457.69;5280206;28;20064;-71
2023/04/22 10:17:40;;;;;;;5.73;5.13;;;;;;;19.59;86.01;100461.91;5258732;28;20139;-71
2023/04/22 10:20:14;;;;;;;;;;;;;;;20.30;81.66;100467.59;5277125;28;20055;-72
2023/04/22 10:22:46;;;;;;;5.68;5.07;;;;;;;19.85;84.79;100459.38;5276231;28;19922;-72
2023/04/22 10:25:25;;;;;;;6.63;5.32;;;;;;;19.92;83.90;100462.00;5277860;28;20025;-72
2023/04/22 10:28:05;;;;;;;6.57;4.93;;;;;;;19.93;82.76;100450.38;5259492;28;20043;-72
2023/04/22 10:30:38;;;;;;;6.63;4.47;;;;;;;20.06;79.86;100454.91;5259862;28;20408;-72
2023/04/22 10:33:27;;;;;;;6.32;4.22;;;;;;;20.22;79.53;100454.50;5275220;28;20525;-72
2023/04/22 10:36:14;;;;;;;5.47;3.63;;;;;;;20.32;78.56;100446.13;5275583;28;20039;-72
2023/04/22 10:38:54;;;;;;;5.22;4.00;;;;;;;20.11;74.77;100436.50;5272912;28;20040;-72
2023/04/22 10:41:29;;;;;;;4.63;3.78;;;;;;;19.99;71.67;100436.25;5274717;28;20032;-72
2023/04/22 10:44:05;;;;;;;7.97;4.30;;;;;;;19.78;76.13;100439.09;5273643;28;20023;-72
2023/04/22 10:46:41;;;;;;;5.43;3.47;;;;;;;19.66;77.10;100447.66;5259305;28;20030;-72
2023/04/22 10:49:16;;;;;;;4.90;3.60;;;;;;;19.34;76.28;100454.41;5275528;28;20473;-72
2023/04/22 10:51:53;;;;;;;4.60;3.40;;;;;;;19.25;78.51;100457.44;5271029;28;20416;-72
2023/04/22 10:54:27;;;;;;;4.35;3.40;;;;;;;19.04;80.95;100461.81;5274025;28;20047;-72
2023/04/22 10:57:07;;;;;;;6.05;3.70;;;;;;;19.01;82.39;100464.84;5273518;28;20177;-72
2023/04/22 10:59:44;;;;;;;3.97;3.22;;;;;;;18.85;82.33;100473.13;5297400;28;20092;-72
2023/04/22 11:02:17;;;;;;;5.95;4.07;;;;;;;18.59;81.01;100473.69;5296740;28;20527;-72
2023/04/22 11:04:49;;;;;;;5.65;3.60;;;;;;;18.57;83.97;100468.59;5293854;28;20063;-72
2023/04/22 11:07:27;;;;;;;7.50;3.92;;;;;;;18.37;94.10;100475.53;5283076;28;20116;-72
2023/04/22 11:10:03;;;;;;;5.18;4.10;;;;;;;18.16;100.00;100477.19;5294662;28;20055;-72
2023/04/22 11:12:34;;;;;;;7.03;4.28;;;;;;;17.94;100.00;100486.13;5276843;28;20028;-73
2023/04/22 11:15:21;;;;;;;8.40;4.38;;;;;;;17.96;100.00;100476.16;5294188;28;20286;-73
2023/04/22 11:17:53;;;;;;;7.15;4.13;;;;;;;17.85;100.00;100474.81;5294213;28;20039;-72
2023/04/22 11:20:25;;;;;;;5.27;4.73;;;;;;;17.77;100.00;100458.19;5296053;28;20790;-72
2023/04/22 11:22:57;;;;;;;7.72;5.13;;;;;;;17.82;100.00;100461.13;5294705;28;20290;-72
2023/04/22 11:25:29;;;;;;;5.78;4.82;;;;;;;17.87;100.00;100467.47;5293771;28;20023;-72
2023/04/22 11:28:00;;;;;;;5.83;4.97;;;;;;;17.76;100.00;100467.97;5296940;28;20028;-72
2023/04/22 11:30:31;;;;;;;5.82;4.80;;;;;;;17.79;100.00;100469.44;5292190;28;20056;-72
2023/04/22 11:33:03;;;;;;;6.50;4.88;;;;;;;17.73;100.00;100476.28;5279454;28;20030;-72
2023/04/22 11:35:34;;;;;;;6.05;5.20;;;;;;;17.68;100.00;100466.22;5296697;28;20032;-73